Time;durP1;ratioP1;P1;durP2;ratioP2;P2;SDS_P1;SDS_P2;PMS_P1;PMS_P2;Temp;Humidity;BMP_temperature;BMP_pressure;BME280_temperature;BME280_humidity;BME280_pressure;Samples;Min_cycle;Max_cycle;Signal;HPM_P1;HPM_P2
2022/05/19 00:01:19;;;;;;;22.42;14.85;;;14.70;99.90;;;;;;5007961;28;20061;-41
2022/05/19 00:03:45;;;;;;;24.55;15.95;;;14.60;99.90;;;;;;5007645;28;20045;-41
2022/05/19 00:06:11;;;;;;;19.60;15.30;;;14.60;99.90;;;;;;5009064;28;20132;-42
2022/05/19 00:08:37;;;;;;;19.50;14.00;;;14.60;99.90;;;;;;5001160;28;20405;-41
2022/05/19 00:11:07;;;;;;;16.45;12.95;;;14.60;99.90;;;;;;5007932;28;20060;-41
2022/05/19 00:13:33;;;;;;;18.63;14.57;;;14.70;99.90;;;;;;5007084;28;20563;-41
2022/05/19 00:15:59;;;;;;;20.77;15.02;;;14.60;99.90;;;;;;5005907;28;20100;-41
2022/05/19 00:18:26;;;;;;;18.20;14.65;;;14.70;99.90;;;;;;4991801;28;20050;-41
2022/05/19 00:20:52;;;;;;;18.23;13.95;;;14.70;99.90;;;;;;5007922;28;20050;-41
2022/05/19 00:23:18;;;;;;;20.67;14.43;;;14.70;99.90;;;;;;5005733;28;20045;-41
2022/05/19 00:25:44;;;;;;;22.20;16.55;;;14.70;99.90;;;;;;5008695;28;20409;-41
2022/05/19 00:28:10;;;;;;;23.90;15.00;;;14.60;99.90;;;;;;4994918;28;20046;-41
2022/05/19 00:30:37;;;;;;;21.83;17.77;;;14.60;99.90;;;;;;5011451;28;20121;-41
2022/05/19 00:33:03;;;;;;;24.30;18.42;;;14.60;99.90;;;;;;5010785;28;20042;-41
2022/05/19 00:35:29;;;;;;;26.10;19.27;;;14.60;99.90;;;;;;5009768;28;20129;-41
2022/05/19 00:37:54;;;;;;;23.83;18.95;;;14.60;99.90;;;;;;4995775;28;20151;-41
2022/05/19 00:40:23;;;;;;;22.55;17.98;;;14.60;99.90;;;;;;5011262;28;20528;-41
2022/05/19 00:42:50;;;;;;;20.98;17.63;;;14.60;99.90;;;;;;5023816;28;20045;-41
2022/05/19 00:45:23;;;;;;;23.40;19.08;;;14.60;99.90;;;;;;5030828;28;20069;-41
2022/05/19 00:47:54;;;;;;;21.83;17.35;;;14.60;99.90;;;;;;5009010;28;20076;-41
2022/05/19 00:50:34;;;;;;;23.33;17.92;;;14.60;99.90;;;;;;5014561;28;20561;-41
2022/05/19 00:53:21;;;;;;;22.00;18.53;;;14.60;99.90;;;;;;5010463;28;20069;-41
2022/05/19 00:55:50;;;;;;;27.70;18.73;;;14.60;99.90;;;;;;5010902;28;20073;-41
2022/05/19 00:58:27;;;;;;;24.38;19.45;;;14.60;99.90;;;;;;5007846;28;20049;-41
2022/05/19 01:00:55;;;;;;;24.23;20.48;;;14.60;99.90;;;;;;4999524;28;20059;-41
2022/05/19 01:03:24;;;;;;;25.50;19.02;;;14.60;99.90;;;;;;5018911;28;20060;-41
2022/05/19 01:06:00;;;;;;;27.30;20.63;;;14.60;99.90;;;;;;5020308;28;20038;-41
2022/05/19 01:08:34;;;;;;;32.13;21.80;;;14.60;99.90;;;;;;4997187;28;20056;-41
2022/05/19 01:11:02;;;;;;;28.27;22.10;;;14.60;99.90;;;;;;5011512;28;20137;-41
2022/05/19 01:13:31;;;;;;;27.38;22.77;;;14.60;99.90;;;;;;5009388;28;20074;-41
2022/05/19 01:15:59;;;;;;;31.70;23.20;;;14.70;99.90;;;;;;5010342;28;20125;-41
2022/05/19 01:18:27;;;;;;;30.10;24.40;;;14.60;99.90;;;;;;4994561;28;20200;-41
2022/05/19 01:20:54;;;;;;;32.65;24.80;;;14.60;99.90;;;;;;5010154;28;20145;-41
2022/05/19 01:23:26;;;;;;;30.73;24.92;;;14.60;99.90;;;;;;5009375;28;20589;-41
2022/05/19 01:25:54;;;;;;;28.00;23.00;;;14.70;99.90;;;;;;5010674;28;20132;-41
2022/05/19 01:28:20;;;;;;;28.33;23.58;;;14.70;99.90;;;;;;5004418;28;20555;-41
2022/05/19 01:30:46;;;;;;;31.33;24.80;;;14.70;99.90;;;;;;5008767;28;20053;-41
2022/05/19 01:33:12;;;;;;;32.05;26.23;;;14.70;99.90;;;;;;5009390;28;20136;-41
2022/05/19 01:35:38;;;;;;;32.17;24.92;;;14.70;99.90;;;;;;5010159;28;20069;-41
2022/05/19 01:38:13;;;;;;;32.05;25.30;;;14.70;99.90;;;;;;4994456;28;20546;-41
2022/05/19 01:40:50;;;;;;;34.45;26.38;;;14.80;99.90;;;;;;5009944;28;20399;-42
2022/05/19 01:43:39;;;;;;;41.95;28.55;;;14.80;99.90;;;;;;5006545;28;20124;-41
2022/05/19 01:46:35;;;;;;;48.55;31.83;;;14.70;99.90;;;;;;4999875;28;20042;-41
2022/05/19 01:49:42;;;;;;;40.47;31.27;;;14.80;99.90;;;;;;4993559;28;20049;-41
2022/05/19 01:52:26;;;;;;;37.00;29.80;;;14.80;99.90;;;;;;5003859;28;20060;-42
2022/05/19 01:55:16;;;;;;;38.25;30.33;;;14.80;99.90;;;;;;5002354;28;20441;-41
2022/05/19 01:58:07;;;;;;;38.60;29.23;;;14.80;99.90;;;;;;5006332;28;20042;-41
2022/05/19 02:00:32;;;;;;;47.88;31.90;;;14.80;99.90;;;;;;5011345;28;20137;-41
2022/05/19 02:03:23;;;;;;;38.47;30.85;;;14.80;99.90;;;;;;5014016;28;20112;-41
2022/05/19 02:06:01;;;;;;;38.08;30.08;;;14.80;99.90;;;;;;5015584;28;20041;-41
2022/05/19 02:08:44;;;;;;;40.75;30.35;;;14.70;99.90;;;;;;4996638;28;20413;-41
2022/05/19 02:11:16;;;;;;;43.90;29.60;;;14.70;99.90;;;;;;5011859;28;20503;-41
2022/05/19 02:13:43;;;;;;;35.05;28.23;;;14.80;99.90;;;;;;5015864;28;20057;-41
2022/05/19 02:16:13;;;;;;;39.75;28.83;;;14.70;99.90;;;;;;5004254;28;20107;-41
2022/05/19 02:18:40;;;;;;;42.78;32.42;;;14.70;99.90;;;;;;5002345;28;20069;-41
2022/05/19 02:21:07;;;;;;;41.72;33.60;;;14.80;99.90;;;;;;5009339;28;20057;-41
2022/05/19 02:23:34;;;;;;;49.88;36.03;;;14.80;99.90;;;;;;5007929;28;20050;-41
2022/05/19 02:26:00;;;;;;;44.47;35.30;;;14.80;99.90;;;;;;5009877;28;20713;-41
2022/05/19 02:28:52;;;;;;;45.92;34.83;;;14.80;99.90;;;;;;4997083;28;20570;-41
2022/05/19 02:31:18;;;;;;;41.30;33.65;;;14.80;99.90;;;;;;5009630;28;20050;-41
2022/05/19 02:33:44;;;;;;;45.78;34.38;;;14.80;99.90;;;;;;5008262;28;20088;-41
2022/05/19 02:36:10;;;;;;;47.28;34.72;;;14.80;99.90;;;;;;5001280;28;20038;-42
2022/05/19 02:38:36;;;;;;;40.88;33.78;;;14.80;99.90;;;;;;5001286;28;20096;-41
2022/05/19 02:41:02;;;;;;;42.88;33.30;;;14.80;99.90;;;;;;5010601;28;20052;-41
2022/05/19 02:43:28;;;;;;;43.35;34.85;;;14.80;99.90;;;;;;5025901;28;20049;-41
2022/05/19 02:45:54;;;;;;;48.42;38.30;;;14.80;99.90;;;;;;5015453;28;20187;-41
2022/05/19 02:48:20;;;;;;;44.72;36.05;;;14.80;99.90;;;;;;5002235;28;20041;-41
2022/05/19 02:50:48;;;;;;;44.95;35.58;;;14.80;99.90;;;;;;5010243;28;20080;-42
2022/05/19 02:53:14;;;;;;;40.70;35.95;;;14.80;99.90;;;;;;5008296;28;20105;-41
2022/05/19 02:55:41;;;;;;;42.55;35.85;;;14.80;99.90;;;;;;5007770;28;20099;-41
2022/05/19 02:58:08;;;;;;;40.78;32.47;;;14.80;99.90;;;;;;5000394;28;20566;-41
2022/05/19 03:00:34;;;;;;;44.17;34.10;;;14.80;99.90;;;;;;5008988;28;20208;-42
2022/05/19 03:03:00;;;;;;;44.03;34.20;;;14.90;99.90;;;;;;5007441;28;20049;-41
2022/05/19 03:05:29;;;;;;;49.17;35.05;;;14.90;99.90;;;;;;5011744;28;20060;-41
2022/05/19 03:07:55;;;;;;;49.13;36.00;;;14.90;99.90;;;;;;4998270;28;20417;-41
2022/05/19 03:10:22;;;;;;;53.20;37.00;;;14.90;99.90;;;;;;4996012;28;20531;-41
2022/05/19 03:12:48;;;;;;;49.05;38.75;;;14.90;99.90;;;;;;5015203;28;20041;-41
2022/05/19 03:15:14;;;;;;;48.63;39.35;;;14.90;99.90;;;;;;5010415;28;20060;-41
2022/05/19 03:17:40;;;;;;;61.13;43.75;;;14.90;99.90;;;;;;4992891;28;20037;-41
2022/05/19 03:20:07;;;;;;;66.78;49.45;;;14.90;99.90;;;;;;5008116;28;20379;-41
2022/05/19 03:22:33;;;;;;;59.75;46.40;;;15.00;99.90;;;;;;5008124;28;20053;-41
2022/05/19 03:24:59;;;;;;;63.55;48.38;;;15.00;99.90;;;;;;5008804;28;20135;-41
2022/05/19 03:27:25;;;;;;;60.10;48.42;;;15.00;99.90;;;;;;4997707;28;20073;-41
2022/05/19 03:29:52;;;;;;;61.25;47.08;;;15.10;99.90;;;;;;5007896;28;20544;-41
2022/05/19 03:32:18;;;;;;;64.60;49.20;;;15.10;99.90;;;;;;5007562;28;20457;-41
2022/05/19 03:34:44;;;;;;;63.30;46.05;;;15.10;99.90;;;;;;5007366;28;20050;-41
2022/05/19 03:37:09;;;;;;;64.03;46.03;;;15.00;99.90;;;;;;4993267;28;20505;-41
2022/05/19 03:39:36;;;;;;;63.33;45.85;;;15.10;99.90;;;;;;5006811;28;20050;-41
2022/05/19 03:42:03;;;;;;;59.78;44.53;;;15.20;99.90;;;;;;5014219;28;20378;-41
2022/05/19 03:44:29;;;;;;;58.97;43.88;;;15.20;99.90;;;;;;5027455;28;20057;-41
2022/05/19 03:46:54;;;;;;;57.30;44.40;;;15.20;99.90;;;;;;5003328;28;20054;-41
2022/05/19 03:49:20;;;;;;;54.28;43.88;;;15.30;99.90;;;;;;5007071;28;20050;-41
2022/05/19 03:51:46;;;;;;;54.95;39.85;;;15.30;99.90;;;;;;5007955;28;20052;-41
2022/05/19 03:54:11;;;;;;;52.17;40.58;;;15.30;99.90;;;;;;5007274;28;20077;-41
2022/05/19 03:56:37;;;;;;;59.08;45.60;;;15.40;99.90;;;;;;4999673;28;20037;-41
2022/05/19 03:59:04;;;;;;;56.35;43.25;;;15.40;99.90;;;;;;5017751;28;20120;-44
2022/05/19 04:01:30;;;;;;;50.90;40.95;;;15.40;99.90;;;;;;5004255;28;20068;-41
2022/05/19 04:03:56;;;;;;;54.13;41.00;;;15.40;99.90;;;;;;5003468;28;20072;-41
2022/05/19 04:06:21;;;;;;;57.40;43.63;;;15.50;99.90;;;;;;4993370;28;20077;-41
2022/05/19 04:08:47;;;;;;;55.92;42.38;;;15.40;99.90;;;;;;5002807;28;20042;-41
2022/05/19 04:11:13;;;;;;;60.20;41.78;;;15.50;99.90;;;;;;5009908;28;20079;-41
2022/05/19 04:13:39;;;;;;;53.58;44.17;;;15.50;99.90;;;;;;5010474;28;20056;-42
2022/05/19 04:16:05;;;;;;;61.15;44.75;;;15.50;99.90;;;;;;5010132;28;20050;-41
2022/05/19 04:18:31;;;;;;;61.40;43.33;;;15.30;99.90;;;;;;4998638;28;20038;-41
2022/05/19 04:20:57;;;;;;;59.00;41.67;;;15.60;99.90;;;;;;5011208;28;20103;-41
2022/05/19 04:23:23;;;;;;;55.08;42.00;;;15.60;99.90;;;;;;5018879;28;20049;-41
2022/05/19 04:25:49;;;;;;;60.92;44.80;;;15.60;99.90;;;;;;5010702;28;20574;-41
2022/05/19 04:28:15;;;;;;;49.35;35.78;;;15.60;99.90;;;;;;4983871;28;20049;-41
2022/05/19 04:30:43;;;;;;;59.92;43.92;;;15.60;99.90;;;;;;5011872;28;20046;-41
2022/05/19 04:33:10;;;;;;;52.25;39.88;;;15.70;99.90;;;;;;5010715;28;20072;-41
2022/05/19 04:35:36;;;;;;;57.65;42.22;;;15.70;99.90;;;;;;5010729;28;20625;-41
2022/05/19 04:38:10;;;;;;;55.53;41.65;;;15.70;99.90;;;;;;4996191;28;20053;-41
2022/05/19 04:40:38;;;;;;;53.17;39.35;;;15.70;99.90;;;;;;5010852;28;20481;-41
2022/05/19 04:43:06;;;;;;;52.13;40.58;;;15.80;99.90;;;;;;5024396;28;20084;-41
2022/05/19 04:45:32;;;;;;;49.00;38.72;;;15.80;99.90;;;;;;5023549;28;20037;-41
2022/05/19 04:47:58;;;;;;;49.85;38.33;;;15.80;99.90;;;;;;5004074;28;20057;-41
2022/05/19 04:50:24;;;;;;;51.05;38.30;;;15.90;99.90;;;;;;5008091;28;20053;-41
2022/05/19 04:52:49;;;;;;;60.75;44.13;;;15.90;99.90;;;;;;4999873;28;20207;-41
2022/05/19 04:55:15;;;;;;;53.70;41.92;;;16.00;99.90;;;;;;4996433;28;20042;-41
2022/05/19 04:57:42;;;;;;;62.97;47.97;;;16.00;99.90;;;;;;5001607;28;20064;-41
2022/05/19 05:00:10;;;;;;;65.88;49.13;;;16.20;99.90;;;;;;5009608;28;20053;-41
2022/05/19 05:02:36;;;;;;;75.43;54.67;;;16.20;99.90;;;;;;5009636;28;20580;-41
2022/05/19 05:05:02;;;;;;;72.50;54.42;;;16.20;99.90;;;;;;5010733;28;20046;-41
2022/05/19 05:07:28;;;;;;;75.93;57.45;;;16.40;99.90;;;;;;5003924;28;20045;-41
2022/05/19 05:09:53;;;;;;;78.53;58.42;;;16.30;99.90;;;;;;5010750;28;20534;-42
2022/05/19 05:12:19;;;;;;;77.13;58.72;;;16.50;99.90;;;;;;5014087;28;20541;-41
2022/05/19 05:14:45;;;;;;;82.07;59.42;;;16.50;99.90;;;;;;5027392;28;20511;-41
2022/05/19 05:17:10;;;;;;;79.35;60.08;;;16.60;99.90;;;;;;4994517;28;20050;-42
2022/05/19 05:19:36;;;;;;;77.90;59.50;;;16.60;99.90;;;;;;4983495;28;20438;-41
2022/05/19 05:22:02;;;;;;;69.70;57.17;;;16.70;99.90;;;;;;4970420;28;20047;-41
2022/05/19 05:24:28;;;;;;;79.95;57.67;;;16.80;99.90;;;;;;5006072;28;20046;-42
2022/05/19 05:26:54;;;;;;;71.05;55.35;;;16.80;99.90;;;;;;5003866;28;20053;-41
2022/05/19 05:29:20;;;;;;;76.65;56.72;;;16.80;99.90;;;;;;5010407;28;20198;-41
2022/05/19 05:31:46;;;;;;;73.18;54.92;;;16.90;99.90;;;;;;5010834;28;20432;-42
2022/05/19 05:34:12;;;;;;;72.68;56.38;;;16.90;99.90;;;;;;5008086;28;20073;-41
2022/05/19 05:36:38;;;;;;;72.68;53.92;;;17.00;99.90;;;;;;4995057;28;20077;-41
2022/05/19 05:39:04;;;;;;;64.10;50.03;;;17.00;99.90;;;;;;5008468;28;20042;-42
2022/05/19 05:41:30;;;;;;;67.10;51.00;;;17.10;99.90;;;;;;5015505;28;20048;-41
2022/05/19 05:43:56;;;;;;;67.28;50.67;;;17.10;99.90;;;;;;5009344;28;20033;-41
2022/05/19 05:46:22;;;;;;;68.03;49.05;;;17.20;99.90;;;;;;4983863;28;20049;-42
2022/05/19 05:48:51;;;;;;;62.42;46.60;;;17.20;99.90;;;;;;4999836;28;20046;-44
2022/05/19 05:51:18;;;;;;;53.85;43.25;;;17.30;99.90;;;;;;5006203;28;20045;-42
2022/05/19 05:53:45;;;;;;;52.42;41.63;;;17.30;99.90;;;;;;5007629;28;20061;-42
2022/05/19 05:56:14;;;;;;;58.20;41.10;;;17.40;99.90;;;;;;5003926;28;20049;-43
2022/05/19 05:58:40;;;;;;;53.30;39.55;;;17.50;99.90;;;;;;5003362;28;20061;-43
2022/05/19 06:01:08;;;;;;;49.33;40.25;;;17.50;99.90;;;;;;5008660;28;20104;-43
2022/05/19 06:03:35;;;;;;;52.33;38.72;;;17.60;99.90;;;;;;5006220;28;20666;-42
2022/05/19 06:06:02;;;;;;;45.67;35.70;;;17.60;99.90;;;;;;5009633;28;20115;-43
2022/05/19 06:08:28;;;;;;;45.33;34.22;;;17.70;99.90;;;;;;4975397;28;20049;-42
2022/05/19 06:10:54;;;;;;;40.53;33.45;;;17.80;99.90;;;;;;5008339;28;20072;-43
2022/05/19 06:13:20;;;;;;;40.60;32.17;;;17.80;99.90;;;;;;5008216;28;20509;-43
2022/05/19 06:15:46;;;;;;;45.55;34.05;;;17.80;99.90;;;;;;5009484;28;20077;-43
2022/05/19 06:18:12;;;;;;;38.72;31.65;;;17.90;99.90;;;;;;4990903;28;20042;-42
2022/05/19 06:20:40;;;;;;;42.50;31.98;;;17.90;99.90;;;;;;5009501;28;20486;-43
2022/05/19 06:23:08;;;;;;;39.25;30.98;;;18.00;99.90;;;;;;5006409;28;20084;-43
2022/05/19 06:25:34;;;;;;;39.13;31.10;;;18.00;99.90;;;;;;5006308;28;20464;-43
2022/05/19 06:28:00;;;;;;;42.38;30.42;;;18.00;99.90;;;;;;4994811;28;20045;-43
2022/05/19 06:30:27;;;;;;;37.55;31.02;;;18.10;99.90;;;;;;5004826;28;20046;-43
2022/05/19 06:32:53;;;;;;;40.63;32.42;;;18.20;99.90;;;;;;5006269;28;20050;-43
2022/05/19 06:35:25;;;;;;;36.92;30.23;;;18.20;99.90;;;;;;5006573;28;20084;-42
2022/05/19 06:37:51;;;;;;;39.03;32.22;;;18.20;99.90;;;;;;4992854;28;20067;-43
2022/05/19 06:40:17;;;;;;;36.03;27.58;;;18.30;99.90;;;;;;5008417;28;20038;-43
2022/05/19 06:42:44;;;;;;;33.97;23.88;;;18.30;99.90;;;;;;5007730;28;20042;-43
2022/05/19 06:45:11;;;;;;;34.72;24.25;;;18.30;99.90;;;;;;5007985;28;20674;-43
2022/05/19 06:47:37;;;;;;;32.80;23.88;;;18.30;99.90;;;;;;4991636;28;20068;-43
2022/05/19 06:50:05;;;;;;;28.85;23.92;;;18.30;99.90;;;;;;5018238;28;20657;-42
2022/05/19 06:52:32;;;;;;;33.83;24.67;;;18.20;99.90;;;;;;5017845;28;20077;-42
2022/05/19 06:55:00;;;;;;;32.28;24.63;;;18.20;99.90;;;;;;5017454;28;20053;-42
2022/05/19 06:57:27;;;;;;;33.65;24.50;;;18.30;99.90;;;;;;4975186;28;20087;-42
2022/05/19 06:59:53;;;;;;;29.48;24.77;;;18.20;99.90;;;;;;4983537;28;20760;-42
2022/05/19 07:02:22;;;;;;;31.02;24.60;;;18.20;99.90;;;;;;4982844;28;20153;-42
2022/05/19 07:04:48;;;;;;;30.45;25.15;;;18.20;99.90;;;;;;4985054;28;20065;-42
2022/05/19 07:07:14;;;;;;;35.95;27.67;;;18.20;99.90;;;;;;4964927;28;20050;-42
2022/05/19 07:09:40;;;;;;;30.67;25.60;;;18.20;99.90;;;;;;4983878;28;20060;-42
2022/05/19 07:12:07;;;;;;;32.97;26.02;;;18.30;99.90;;;;;;4982186;28;20049;-42
2022/05/19 07:14:34;;;;;;;34.20;26.90;;;18.20;99.90;;;;;;4981949;28;20375;-42
2022/05/19 07:17:00;;;;;;;29.85;26.52;;;18.30;99.90;;;;;;4964512;28;20054;-42
2022/05/19 07:22:22;;;;;;;36.00;26.52;;;18.30;99.90;;;;;;4979150;28;20123;-42
2022/05/19 07:24:48;;;;;;;30.10;24.65;;;18.30;99.90;;;;;;4983207;28;20165;-41
2022/05/19 07:27:14;;;;;;;33.15;25.42;;;18.30;99.90;;;;;;4961812;28;20928;-42
2022/05/19 07:29:40;;;;;;;30.73;23.60;;;18.30;99.90;;;;;;4981612;28;20111;-42
2022/05/19 07:32:07;;;;;;;29.77;22.02;;;18.30;99.90;;;;;;4978345;28;20053;-42
2022/05/19 07:34:35;;;;;;;36.83;24.27;;;18.40;99.90;;;;;;4985416;28;20201;-42
2022/05/19 07:37:00;;;;;;;28.98;20.13;;;18.40;99.90;;;;;;4969595;28;20065;-42
2022/05/19 07:39:26;;;;;;;28.25;17.63;;;18.40;99.90;;;;;;4986277;28;20050;-42
2022/05/19 07:41:55;;;;;;;25.15;15.25;;;18.40;99.90;;;;;;4985319;28;20077;-41
2022/05/19 07:44:22;;;;;;;24.25;14.75;;;18.40;99.90;;;;;;4985376;28;20095;-41
2022/05/19 07:46:49;;;;;;;20.73;13.15;;;18.40;99.90;;;;;;4969296;28;20747;-42
2022/05/19 07:49:15;;;;;;;19.23;12.95;;;18.40;99.90;;;;;;4985915;28;20046;-42
2022/05/19 07:51:42;;;;;;;23.30;13.93;;;18.40;99.90;;;;;;4983654;28;20045;-42
2022/05/19 07:54:14;;;;;;;23.52;12.10;;;18.40;99.90;;;;;;4983973;28;20567;-41
2022/05/19 07:56:41;;;;;;;19.83;10.32;;;18.40;99.90;;;;;;4970750;28;20057;-41
2022/05/19 07:59:08;;;;;;;18.25;10.00;;;18.40;99.90;;;;;;4984767;28;20057;-42
2022/05/19 08:01:33;;;;;;;23.00;9.70;;;18.50;99.90;;;;;;4984459;28;20072;-41
2022/05/19 08:04:00;;;;;;;22.75;9.27;;;18.50;99.90;;;;;;4985727;28;20042;-41
2022/05/19 08:06:28;;;;;;;21.70;9.32;;;18.50;99.90;;;;;;4970595;28;20502;-41
2022/05/19 08:08:54;;;;;;;18.33;7.88;;;18.50;99.90;;;;;;4983036;28;20041;-41
2022/05/19 08:11:20;;;;;;;18.92;8.48;;;18.50;99.90;;;;;;4983687;28;20077;-41
2022/05/19 08:16:30;;;;;;;18.17;8.85;;;18.60;99.90;;;;;;4970264;28;20567;-42
2022/05/19 08:18:56;;;;;;;18.88;8.98;;;18.60;99.90;;;;;;4984054;28;20049;-41
2022/05/19 08:21:22;;;;;;;20.50;10.40;;;18.60;99.90;;;;;;4977068;28;20053;-42
2022/05/19 08:23:50;;;;;;;20.92;10.13;;;18.70;99.90;;;;;;4981646;28;20533;-41
2022/05/19 08:26:17;;;;;;;19.05;8.80;;;18.70;99.90;;;;;;4970900;28;20061;-42
2022/05/19 08:28:44;;;;;;;18.80;9.35;;;18.70;99.90;;;;;;4969566;28;20473;-45
2022/05/19 08:31:22;;;;;;;19.67;10.05;;;18.70;99.90;;;;;;4983145;28;20062;-43
2022/05/19 08:33:51;;;;;;;20.50;9.35;;;18.70;99.90;;;;;;4983852;28;20053;-44
2022/05/19 08:36:17;;;;;;;17.60;9.75;;;18.70;99.90;;;;;;4970340;28;20046;-43
2022/05/19 08:38:42;;;;;;;23.13;10.73;;;18.80;99.90;;;;;;4980761;28;20532;-44
2022/05/19 08:41:28;;;;;;;19.10;9.40;;;18.80;99.90;;;;;;4985045;28;20053;-44
2022/05/19 08:43:57;;;;;;;17.33;9.65;;;18.80;99.90;;;;;;4984486;28;20056;-43
2022/05/19 08:46:36;;;;;;;16.00;9.35;;;18.80;99.90;;;;;;4969314;28;20058;-42
2022/05/19 08:49:16;;;;;;;15.27;9.60;;;18.90;99.90;;;;;;4984059;28;20042;-42
2022/05/19 08:52:02;;;;;;;21.35;10.50;;;18.90;99.90;;;;;;4983543;28;20054;-43
2022/05/19 08:54:28;;;;;;;18.55;10.23;;;19.00;99.90;;;;;;4984776;28;20128;-43
2022/05/19 08:57:14;;;;;;;15.63;9.50;;;19.00;99.90;;;;;;4967404;28;20049;-43
2022/05/19 09:00:01;;;;;;;19.58;9.70;;;19.10;99.90;;;;;;4982723;28;21069;-43
2022/05/19 09:02:50;;;;;;;16.55;9.63;;;19.10;99.90;;;;;;4981962;28;20627;-42
2022/05/19 09:05:46;;;;;;;15.63;9.52;;;19.20;99.90;;;;;;4984137;28;20065;-43
2022/05/19 09:08:19;;;;;;;15.07;10.27;;;19.30;99.90;;;;;;4966010;28;20101;-43
2022/05/19 09:11:08;;;;;;;15.40;9.75;;;19.40;99.90;;;;;;4983017;28;20054;-43
2022/05/19 09:13:38;;;;;;;14.38;8.98;;;19.50;99.90;;;;;;4981698;28;20050;-42
2022/05/19 09:16:20;;;;;;;14.32;8.93;;;19.50;99.90;;;;;;4983088;28;20506;-43
2022/05/19 09:18:58;;;;;;;15.40;8.80;;;19.70;99.90;;;;;;4976671;28;20120;-42
2022/05/19 09:21:24;;;;;;;15.68;8.70;;;19.70;99.90;;;;;;4983405;28;20057;-43
2022/05/19 09:23:49;;;;;;;11.57;8.05;;;19.80;99.90;;;;;;4981356;28;20520;-42
2022/05/19 09:26:45;;;;;;;14.68;8.75;;;19.90;99.90;;;;;;4974402;28;20045;-43
2022/05/19 09:29:22;;;;;;;11.63;8.35;;;20.00;99.90;;;;;;4983132;28;20046;-42
2022/05/19 09:31:52;;;;;;;10.68;8.40;;;20.10;99.90;;;;;;4983617;28;20054;-42
2022/05/19 09:34:22;;;;;;;11.67;8.63;;;20.20;99.90;;;;;;4982957;28;20084;-42
2022/05/19 09:37:01;;;;;;;13.13;8.32;;;20.20;99.90;;;;;;4966312;28;20221;-42
2022/05/19 09:39:35;;;;;;;12.95;8.77;;;20.40;99.90;;;;;;4984218;28;20092;-42
2022/05/19 09:42:08;;;;;;;12.52;8.07;;;20.40;99.90;;;;;;4981108;28;20164;-42
2022/05/19 09:44:36;;;;;;;10.55;7.10;;;20.50;99.90;;;;;;5013562;28;20861;-41
2022/05/19 09:47:33;;;;;;;12.10;8.57;;;20.60;99.90;;;;;;4966311;28;20637;-42
2022/05/19 09:50:27;;;;;;;10.68;8.20;;;20.70;99.90;;;;;;4984367;28;20795;-42
2022/05/19 09:53:00;;;;;;;11.65;7.43;;;20.80;99.90;;;;;;4975932;28;20049;-41
2022/05/19 09:55:27;;;;;;;14.48;8.50;;;20.80;99.90;;;;;;4985037;28;20103;-42
2022/05/19 09:58:02;;;;;;;9.88;8.23;;;20.90;99.90;;;;;;4963438;28;20061;-42
2022/05/19 10:00:37;;;;;;;12.38;8.30;;;21.00;99.90;;;;;;4984906;28;20448;-41
2022/05/19 10:03:09;;;;;;;12.00;8.35;;;21.00;99.90;;;;;;4979284;28;20137;-42
2022/05/19 10:05:39;;;;;;;9.70;7.68;;;21.10;99.90;;;;;;4984803;28;20050;-42
2022/05/19 10:08:12;;;;;;;13.85;7.95;;;21.10;99.90;;;;;;4964814;28;20053;-42
2022/05/19 10:11:13;;;;;;;13.27;8.50;;;21.20;99.90;;;;;;4982654;28;20058;-42
2022/05/19 10:13:56;;;;;;;11.07;7.97;;;21.20;99.90;;;;;;4979787;28;20426;-42
2022/05/19 10:16:51;;;;;;;17.08;9.18;;;21.30;99.90;;;;;;4971895;28;20087;-42
2022/05/19 10:19:54;;;;;;;11.60;8.30;;;21.30;99.90;;;;;;4981322;28;20195;-42
2022/05/19 10:22:30;;;;;;;10.98;7.57;;;21.40;99.90;;;;;;4963200;28;20065;-42
2022/05/19 10:25:17;;;;;;;11.43;8.02;;;21.50;99.90;;;;;;4984526;28;20064;-41
2022/05/19 10:31:04;;;;;;;11.95;8.00;;;21.70;99.90;;;;;;4981801;28;20147;-42
2022/05/19 10:33:48;;;;;;;10.60;7.88;;;21.80;99.90;;;;;;4979275;28;20099;-42
2022/05/19 10:36:26;;;;;;;9.90;7.22;;;21.90;99.90;;;;;;4972598;28;20111;-42
2022/05/19 10:39:23;;;;;;;11.77;7.10;;;22.00;99.90;;;;;;4979217;28;20081;-42
2022/05/19 10:42:11;;;;;;;8.98;7.00;;;22.10;99.90;;;;;;4979146;28;20054;-42
2022/05/19 10:44:49;;;;;;;10.13;6.85;;;22.20;99.90;;;;;;4982660;28;20060;-44
2022/05/19 10:47:42;;;;;;;12.68;7.32;;;22.20;99.90;;;;;;4961824;28;20068;-44
2022/05/19 10:50:30;;;;;;;12.35;6.93;;;22.30;99.90;;;;;;4982334;28;20137;-44
2022/05/19 10:53:11;;;;;;;9.07;6.10;;;22.30;99.90;;;;;;4971193;28;20076;-44
2022/05/19 10:55:47;;;;;;;11.43;6.63;;;22.40;99.90;;;;;;4981009;28;20056;-44
2022/05/19 10:58:28;;;;;;;11.57;6.43;;;22.50;99.90;;;;;;4962864;28;20058;-44
2022/05/19 11:01:18;;;;;;;9.95;6.00;;;22.60;99.90;;;;;;4980792;28;20053;-44
2022/05/19 11:03:56;;;;;;;9.43;5.82;;;22.70;99.90;;;;;;4979720;28;20052;-44
2022/05/19 11:06:48;;;;;;;6.78;4.38;;;22.80;99.90;;;;;;4969545;28;20054;-44
2022/05/19 11:09:54;;;;;;;9.15;4.45;;;23.00;99.90;;;;;;4979527;28;20508;-44
2022/05/19 11:12:34;;;;;;;6.75;4.75;;;23.20;99.90;;;;;;4978561;28;20802;-44
2022/05/19 11:15:23;;;;;;;6.18;5.15;;;23.30;99.90;;;;;;4980097;28;20929;-44
2022/05/19 11:18:12;;;;;;;7.40;4.05;;;23.40;99.90;;;;;;4962688;28;20072;-41
2022/05/19 11:21:04;;;;;;;9.02;4.47;;;23.50;99.90;;;;;;4982371;28;20064;-44
2022/05/19 11:24:00;;;;;;;9.82;5.15;;;23.60;99.90;;;;;;4976720;28;20064;-44
2022/05/19 11:26:44;;;;;;;7.35;5.22;;;23.80;99.90;;;;;;4968424;28;20712;-44
2022/05/19 11:29:31;;;;;;;8.48;5.03;;;23.80;99.90;;;;;;4980128;28;20054;-44
2022/05/19 11:32:12;;;;;;;7.68;5.97;;;23.90;99.90;;;;;;4982749;28;20078;-44
2022/05/19 11:35:00;;;;;;;10.60;6.55;;;23.90;99.90;;;;;;4984108;28;20053;-44
2022/05/19 11:37:46;;;;;;;9.02;6.50;;;24.00;99.90;;;;;;4963690;28;20060;-44
2022/05/19 11:40:12;;;;;;;8.38;6.30;;;24.10;99.90;;;;;;4982792;28;20093;-44
2022/05/19 11:42:41;;;;;;;7.68;6.13;;;24.10;99.90;;;;;;4981462;28;20810;-42
2022/05/19 11:45:12;;;;;;;6.78;4.95;;;24.10;99.90;;;;;;4980382;28;20387;-44
2022/05/19 11:56:18;;;;;;;8.93;7.32;;;24.30;99.90;;;;;;4972344;28;20066;-43
2022/05/19 11:58:44;;;;;;;8.23;7.35;;;24.30;99.90;;;;;;4974605;28;20054;-42
2022/05/19 12:01:18;;;;;;;9.43;6.93;;;24.30;99.90;;;;;;4981910;28;20046;-42
2022/05/19 12:03:51;;;;;;;8.98;8.02;;;24.30;99.90;;;;;;4978778;28;20135;-42
2022/05/19 12:06:27;;;;;;;9.70;8.45;;;24.20;99.90;;;;;;4971586;28;20080;-42
2022/05/19 12:08:55;;;;;;;8.75;7.85;;;24.10;99.90;;;;;;4974704;28;20618;-42
2022/05/19 12:11:36;;;;;;;12.23;9.15;;;23.90;99.90;;;;;;4982719;28;20897;-42
2022/05/19 12:14:12;;;;;;;11.55;9.00;;;23.90;99.90;;;;;;4979625;28;20156;-42
2022/05/19 12:16:52;;;;;;;12.38;9.60;;;23.80;99.90;;;;;;4967117;28;20050;-42
2022/05/19 12:19:47;;;;;;;11.48;10.27;;;23.70;99.90;;;;;;4979227;28;20065;-42
2022/05/19 12:22:31;;;;;;;14.10;10.55;;;23.60;99.90;;;;;;4983358;28;20107;-43
2022/05/19 12:25:00;;;;;;;12.13;9.40;;;23.50;99.90;;;;;;4986090;28;20417;-42
2022/05/19 12:27:45;;;;;;;10.35;8.68;;;23.50;99.90;;;;;;4966373;28;20111;-42
2022/05/19 12:33:11;;;;;;;10.70;7.85;;;23.50;99.90;;;;;;4973813;28;20049;-42
2022/05/19 12:35:38;;;;;;;10.27;8.35;;;23.50;99.90;;;;;;4965965;28;20138;-42
2022/05/19 12:38:25;;;;;;;10.88;8.25;;;23.40;99.90;;;;;;4948209;28;20185;-42
2022/05/19 12:40:53;;;;;;;10.07;8.85;;;23.40;99.90;;;;;;4966384;28;20054;-42
2022/05/19 12:43:23;;;;;;;14.50;8.40;;;23.40;99.90;;;;;;4973358;28;20089;-42
2022/05/19 12:45:52;;;;;;;14.52;8.95;;;23.30;99.90;;;;;;4983034;28;20637;-41
2022/05/19 12:48:32;;;;;;;15.27;8.75;;;23.20;99.90;;;;;;4966797;28;20046;-41
2022/05/19 12:51:16;;;;;;;12.27;5.20;;;23.00;99.90;;;;;;4983877;28;20053;-41
2022/05/19 12:54:05;;;;;;;13.90;5.07;;;22.70;99.90;;;;;;4978467;28;20054;-41
2022/05/19 12:56:40;;;;;;;7.13;3.00;;;22.20;99.90;;;;;;4969600;28;20536;-41
2022/05/19 12:59:27;;;;;;;6.40;2.40;;;21.80;99.90;;;;;;4977710;28;20072;-41
2022/05/19 13:01:57;;;;;;;6.68;2.65;;;21.40;99.90;;;;;;4981627;28;20421;-41
2022/05/19 13:04:26;;;;;;;6.47;3.20;;;21.10;99.90;;;;;;4981948;28;20725;-42
2022/05/19 13:07:24;;;;;;;7.70;4.65;;;21.00;99.90;;;;;;4968816;28;20076;-41
2022/05/19 13:10:07;;;;;;;10.80;6.28;;;20.90;99.90;;;;;;4980902;28;20050;-41
2022/05/19 13:12:56;;;;;;;9.07;6.43;;;20.70;99.90;;;;;;4980667;28;20161;-41
2022/05/19 13:15:26;;;;;;;9.32;7.18;;;20.70;99.90;;;;;;4983239;28;20057;-43